createdAt,value
2022-12-08T00:01:30.969Z,3.00
2022-12-08T00:04:00.261Z,3.00
2022-12-08T00:06:52.162Z,3.04
2022-12-08T00:09:38.677Z,3.10
2022-12-08T00:12:13.514Z,3.20
2022-12-08T00:14:46.916Z,3.20
2022-12-08T00:17:16.795Z,3.20
2022-12-08T00:19:45.281Z,3.28
2022-12-08T00:22:14.837Z,3.30
2022-12-08T00:24:44.972Z,3.30
2022-12-08T00:27:15.239Z,3.30
2022-12-08T00:29:44.995Z,3.30
2022-12-08T00:32:12.005Z,3.36
2022-12-08T00:34:38.657Z,3.40
2022-12-08T00:37:05.350Z,3.40
2022-12-08T00:39:32.410Z,3.40
2022-12-08T00:42:14.105Z,3.40
2022-12-08T00:44:45.748Z,3.40
2022-12-08T00:47:13.534Z,3.40
2022-12-08T00:49:40.694Z,3.40
2022-12-08T00:52:08.239Z,3.40
2022-12-08T00:54:35.118Z,3.40
2022-12-08T00:57:02.225Z,3.40
2022-12-08T00:59:28.959Z,3.40
2022-12-08T01:01:55.687Z,3.40
2022-12-08T01:04:22.592Z,3.34
2022-12-08T01:06:50.100Z,3.30
2022-12-08T01:09:18.193Z,3.20
2022-12-08T01:11:45.263Z,3.20
2022-12-08T01:14:13.503Z,3.10
2022-12-08T01:16:41.873Z,3.06
2022-12-08T01:19:11.405Z,3.06
2022-12-08T01:21:38.101Z,3.00
2022-12-08T01:24:05.468Z,2.92
2022-12-08T01:26:32.209Z,2.82
2022-12-08T01:28:59.665Z,2.80
2022-12-08T01:31:26.449Z,2.70
2022-12-08T01:33:53.547Z,2.62
2022-12-08T01:36:31.677Z,2.60
2022-12-08T01:39:02.157Z,2.60
2022-12-08T01:41:32.042Z,2.60
2022-12-08T01:44:03.656Z,2.60
2022-12-08T01:46:33.129Z,2.64
2022-12-08T01:49:08.517Z,2.70
2022-12-08T01:52:34.149Z,2.70
2022-12-08T01:55:08.733Z,2.72
2022-12-08T01:57:42.947Z,2.80
2022-12-08T02:00:12.928Z,2.80
2022-12-08T02:02:48.897Z,2.90
2022-12-08T02:05:17.415Z,2.90
2022-12-08T02:07:45.139Z,3.00
2022-12-08T02:10:16.369Z,3.00
2022-12-08T02:12:43.115Z,3.10
2022-12-08T02:15:10.702Z,3.08
2022-12-08T02:18:17.566Z,3.00
2022-12-08T02:21:01.022Z,3.00
2022-12-08T02:24:09.031Z,2.90
2022-12-08T02:27:31.488Z,2.90
2022-12-08T02:30:01.071Z,2.90
2022-12-08T02:32:49.135Z,2.90
2022-12-08T02:35:48.150Z,2.90
2022-12-08T02:38:14.786Z,2.90
2022-12-08T02:41:18.064Z,2.90
2022-12-08T02:43:48.794Z,2.90
2022-12-08T02:46:22.772Z,2.90
2022-12-08T02:48:52.405Z,2.90
2022-12-08T02:51:19.821Z,2.90
2022-12-08T02:53:47.434Z,2.94
2022-12-08T02:56:40.525Z,3.00
2022-12-08T02:59:31.998Z,3.00
2022-12-08T03:01:58.702Z,3.00
2022-12-08T03:04:54.159Z,3.00
2022-12-08T03:07:40.988Z,3.02
2022-12-08T03:10:16.402Z,3.08
2022-12-08T03:12:49.593Z,3.10
2022-12-08T03:15:19.467Z,3.10
2022-12-08T03:17:51.468Z,3.10
2022-12-08T03:20:24.265Z,3.10
2022-12-08T03:22:53.477Z,3.10
2022-12-08T03:25:23.202Z,3.10
2022-12-08T03:27:51.605Z,3.00
2022-12-08T03:30:18.802Z,3.00
2022-12-08T03:32:51.494Z,2.90
2022-12-08T03:35:26.702Z,2.80
2022-12-08T03:38:12.087Z,2.80
2022-12-08T03:40:40.363Z,2.80
2022-12-08T03:43:07.823Z,2.80
2022-12-08T03:45:34.961Z,2.80
2022-12-08T03:48:01.931Z,2.80
2022-12-08T03:50:28.583Z,2.80
2022-12-08T03:52:55.219Z,2.80
2022-12-08T03:55:21.936Z,2.80
2022-12-08T03:57:48.613Z,2.86
2022-12-08T04:00:17.354Z,2.88
2022-12-08T04:02:44.127Z,2.90
2022-12-08T04:05:10.928Z,2.90
2022-12-08T04:07:37.692Z,2.90
2022-12-08T04:10:05.769Z,2.90
2022-12-08T04:12:32.694Z,2.90
2022-12-08T04:14:59.329Z,2.90
2022-12-08T04:17:26.040Z,2.90
2022-12-08T04:19:52.725Z,2.86
2022-12-08T04:22:19.352Z,2.80
2022-12-08T04:24:46.081Z,2.80
2022-12-08T04:27:12.830Z,2.80
2022-12-08T04:29:39.545Z,2.90
2022-12-08T04:32:06.244Z,2.90
2022-12-08T04:34:33.205Z,2.90
2022-12-08T04:36:59.836Z,2.94
2022-12-08T04:39:26.570Z,3.00
2022-12-08T04:41:53.386Z,3.00
2022-12-08T04:44:20.214Z,3.00
2022-12-08T04:46:46.939Z,3.04
2022-12-08T04:49:13.707Z,3.10
2022-12-08T04:51:40.534Z,3.10
2022-12-08T04:54:07.275Z,3.10
2022-12-08T04:56:33.955Z,3.10
2022-12-08T04:59:00.652Z,3.10
2022-12-08T05:01:27.513Z,3.20
2022-12-08T05:03:54.273Z,3.20
2022-12-08T05:06:21.061Z,3.20
2022-12-08T05:08:47.761Z,3.20
2022-12-08T05:11:14.457Z,3.20
2022-12-08T05:13:41.225Z,3.20
2022-12-08T05:16:13.907Z,3.20
2022-12-08T05:18:41.534Z,3.10
2022-12-08T05:21:08.581Z,3.10
2022-12-08T05:23:35.730Z,3.10
2022-12-08T05:26:02.436Z,3.10
2022-12-08T05:28:44.649Z,3.10
2022-12-08T05:31:13.609Z,3.10
2022-12-08T05:33:40.837Z,3.06
2022-12-08T05:36:09.069Z,3.00
2022-12-08T05:38:36.257Z,3.00
2022-12-08T05:41:03.491Z,3.00
2022-12-08T05:43:30.189Z,3.00
2022-12-08T05:45:56.927Z,3.00
2022-12-08T05:48:23.683Z,3.00
2022-12-08T05:50:51.369Z,3.00
2022-12-08T05:53:19.954Z,3.00
2022-12-08T05:55:47.526Z,3.00
2022-12-08T05:58:17.534Z,3.00
2022-12-08T06:00:45.303Z,3.00
2022-12-08T06:03:12.951Z,3.00
2022-12-08T06:05:41.483Z,3.00
2022-12-08T06:08:08.838Z,2.98
2022-12-08T06:10:35.619Z,2.94
2022-12-08T06:13:02.293Z,2.94
2022-12-08T06:15:29.014Z,2.90
2022-12-08T06:17:55.694Z,2.90
2022-12-08T06:20:22.400Z,2.90
2022-12-08T06:22:49.057Z,2.90
2022-12-08T06:25:15.716Z,2.90
2022-12-08T06:27:42.363Z,2.90
2022-12-08T06:30:09.363Z,2.90
2022-12-08T06:32:37.573Z,2.90
2022-12-08T06:35:04.747Z,2.90
2022-12-08T06:37:31.719Z,2.90
2022-12-08T06:39:58.693Z,2.90
2022-12-08T06:42:44.047Z,2.90
2022-12-08T06:45:18.060Z,2.82
2022-12-08T06:47:44.892Z,2.80
2022-12-08T06:50:13.872Z,2.88
2022-12-08T06:52:53.029Z,2.88
2022-12-08T06:55:57.362Z,2.90
2022-12-08T06:58:13.423Z,2.90
2022-12-08T07:00:41.524Z,2.90
2022-12-08T07:03:10.065Z,2.80
2022-12-08T07:05:38.373Z,2.80
2022-12-08T07:08:07.105Z,2.70
2022-12-08T07:10:34.684Z,2.70
2022-12-08T07:13:01.331Z,2.70
2022-12-08T07:15:28.297Z,2.70
2022-12-08T07:17:59.759Z,2.70
2022-12-08T07:20:27.522Z,2.70
2022-12-08T07:22:54.459Z,2.70
2022-12-08T07:25:21.988Z,2.70
2022-12-08T07:27:51.437Z,2.70
2022-12-08T07:30:18.245Z,2.76
2022-12-08T07:32:44.981Z,2.80
2022-12-08T07:35:11.827Z,2.80
2022-12-08T07:37:39.284Z,2.88
2022-12-08T07:40:08.067Z,2.90
2022-12-08T07:42:35.123Z,2.90
2022-12-08T07:45:02.367Z,3.00
2022-12-08T07:47:29.141Z,3.00
2022-12-08T07:49:55.954Z,3.02
2022-12-08T07:52:23.514Z,3.10
2022-12-08T07:54:50.359Z,3.12
2022-12-08T07:57:17.196Z,3.20
2022-12-08T07:59:43.861Z,3.30
2022-12-08T08:02:25.007Z,3.30
2022-12-08T08:04:53.204Z,3.40
2022-12-08T08:07:20.038Z,3.50
2022-12-08T08:09:46.789Z,3.50
2022-12-08T08:15:01.169Z,3.62
2022-12-08T08:17:29.118Z,3.70
2022-12-08T08:19:56.031Z,3.70
2022-12-08T08:22:22.697Z,3.70
2022-12-08T08:24:49.428Z,3.70
2022-12-08T08:27:16.270Z,3.74
2022-12-08T08:29:43.011Z,3.80
2022-12-08T08:32:09.870Z,3.80
2022-12-08T08:34:36.587Z,3.80
2022-12-08T08:37:03.447Z,3.80
2022-12-08T08:39:32.087Z,3.80
2022-12-08T08:41:59.332Z,3.80
2022-12-08T08:44:26.077Z,3.90
2022-12-08T08:46:52.880Z,3.90
2022-12-08T08:49:20.301Z,3.90
2022-12-08T08:51:47.257Z,3.90
2022-12-08T08:54:14.013Z,3.92
2022-12-08T08:56:40.674Z,4.00
2022-12-08T08:59:07.573Z,4.00
2022-12-08T09:01:34.356Z,4.00
2022-12-08T09:04:01.769Z,4.10
2022-12-08T09:06:28.784Z,4.10
2022-12-08T09:08:55.966Z,4.12
2022-12-08T09:11:25.883Z,4.20
2022-12-08T09:13:54.157Z,4.20
2022-12-08T09:16:21.882Z,4.20
2022-12-08T09:18:49.737Z,4.26
2022-12-08T09:21:22.907Z,4.30
2022-12-08T09:23:51.558Z,4.30
2022-12-08T09:26:22.362Z,4.38
2022-12-08T09:28:50.545Z,4.40
2022-12-08T09:31:18.912Z,4.44
2022-12-08T09:33:45.721Z,4.50
2022-12-08T09:36:12.411Z,4.50
2022-12-08T09:38:40.506Z,4.52
2022-12-08T09:41:49.971Z,4.60
2022-12-08T09:44:16.570Z,4.64
2022-12-08T09:46:43.900Z,4.70
2022-12-08T09:49:16.857Z,4.72
2022-12-08T09:51:45.295Z,4.80
2022-12-08T09:54:33.948Z,4.90
2022-12-08T09:57:07.144Z,5.00
2022-12-08T09:59:35.622Z,5.08
2022-12-08T10:02:13.599Z,5.10
2022-12-08T10:04:41.442Z,5.10
2022-12-08T10:07:36.788Z,5.10
2022-12-08T10:10:15.828Z,5.20
2022-12-08T10:12:57.858Z,5.24
2022-12-08T10:15:33.718Z,5.30
2022-12-08T10:18:03.022Z,5.20
2022-12-08T10:20:37.645Z,5.20
2022-12-08T10:23:13.772Z,5.20
2022-12-08T10:25:47.189Z,5.20
2022-12-08T10:28:14.105Z,5.20
2022-12-08T10:30:41.719Z,5.20
2022-12-08T10:33:16.840Z,5.20
2022-12-08T10:35:50.793Z,5.26
2022-12-08T10:38:26.600Z,5.30
2022-12-08T10:41:02.370Z,5.30
2022-12-08T10:43:29.104Z,5.36
2022-12-08T10:46:08.789Z,5.40
2022-12-08T10:48:35.484Z,5.40
2022-12-08T10:51:05.481Z,5.50
2022-12-08T10:53:34.134Z,5.50
2022-12-08T10:56:03.800Z,5.52
2022-12-08T10:58:42.447Z,5.60
2022-12-08T11:01:14.341Z,5.60
2022-12-08T11:04:16.091Z,5.60
2022-12-08T11:06:42.969Z,5.70
2022-12-08T11:09:15.607Z,5.72
2022-12-08T11:11:58.771Z,5.80
2022-12-08T11:14:30.285Z,5.80
2022-12-08T11:17:07.276Z,5.78
2022-12-08T11:19:38.815Z,5.90
2022-12-08T11:22:25.479Z,5.90
2022-12-08T11:25:18.945Z,5.98
2022-12-08T11:27:54.053Z,6.00
2022-12-08T11:30:43.816Z,6.10
2022-12-08T11:33:22.325Z,6.10
2022-12-08T11:35:56.931Z,6.20
2022-12-08T11:38:26.215Z,6.20
2022-12-08T11:40:58.761Z,6.20
2022-12-08T11:43:38.968Z,6.10
2022-12-08T11:46:23.784Z,6.10
2022-12-08T11:48:58.968Z,6.00
2022-12-08T11:52:16.947Z,5.90
2022-12-08T11:54:50.611Z,5.80
2022-12-08T11:57:20.767Z,5.80
2022-12-08T11:59:52.474Z,5.80
2022-12-08T12:02:23.769Z,5.80
2022-12-08T12:04:53.455Z,5.78
2022-12-08T12:07:33.411Z,5.78
2022-12-08T12:10:06.619Z,5.80
2022-12-08T12:12:58.146Z,5.80
2022-12-08T12:16:09.497Z,5.80
2022-12-08T12:18:46.625Z,5.80
2022-12-08T12:21:26.631Z,5.80
2022-12-08T12:24:05.148Z,5.84
2022-12-08T12:26:37.614Z,5.90
2022-12-08T12:29:18.914Z,5.90
2022-12-08T12:31:53.666Z,5.90
2022-12-08T12:34:25.619Z,5.94
2022-12-08T12:37:10.693Z,6.00
2022-12-08T12:39:52.659Z,6.00
2022-12-08T12:42:34.740Z,6.00
2022-12-08T12:45:21.590Z,5.98
2022-12-08T12:47:56.293Z,6.00
2022-12-08T12:50:41.771Z,6.00
2022-12-08T12:53:17.333Z,6.00
2022-12-08T12:55:54.642Z,6.00
2022-12-08T12:58:21.295Z,6.00
2022-12-08T13:00:48.068Z,5.94
2022-12-08T13:03:17.293Z,6.00
2022-12-08T13:05:50.820Z,6.00
2022-12-08T13:08:26.511Z,6.00
2022-12-08T13:11:04.866Z,6.00
2022-12-08T13:13:32.202Z,6.00
2022-12-08T13:16:19.166Z,6.00
2022-12-08T13:18:52.482Z,6.00
2022-12-08T13:21:21.834Z,6.00
2022-12-08T13:23:48.485Z,6.00
2022-12-08T13:26:26.371Z,6.00
2022-12-08T13:28:58.781Z,6.00
2022-12-08T13:31:42.616Z,6.00
2022-12-08T13:34:31.866Z,6.00
2022-12-08T13:37:10.757Z,6.00
2022-12-08T13:39:40.156Z,6.08
2022-12-08T13:42:13.078Z,6.08
2022-12-08T13:48:23.863Z,6.10
2022-12-08T13:52:59.893Z,6.10
2022-12-08T13:59:31.753Z,6.02
2022-12-08T14:02:04.574Z,6.00
2022-12-08T14:04:54.465Z,6.00
2022-12-08T14:07:19.253Z,5.90
2022-12-08T14:09:46.607Z,5.90
2022-12-08T14:12:21.988Z,5.76
2022-12-08T14:15:03.871Z,5.80
2022-12-08T14:17:31.031Z,5.72
2022-12-08T14:20:00.951Z,5.70
2022-12-08T14:22:36.247Z,5.60
2022-12-08T14:25:05.492Z,5.60
2022-12-08T14:27:35.764Z,5.50
2022-12-08T14:30:08.049Z,5.50
2022-12-08T14:32:59.072Z,5.40
2022-12-08T14:35:37.996Z,5.30
2022-12-08T14:38:16.940Z,5.28
2022-12-08T14:40:46.193Z,5.20
2022-12-08T14:43:19.221Z,5.10
2022-12-08T14:45:45.818Z,5.10
2022-12-08T14:48:30.889Z,5.00
2022-12-08T14:51:03.417Z,4.90
2022-12-08T14:53:59.127Z,4.80
2022-12-08T14:56:33.099Z,4.72
2022-12-08T14:59:07.920Z,4.70
2022-12-08T15:01:35.440Z,4.60
2022-12-08T15:04:07.224Z,4.52
2022-12-08T15:06:34.101Z,4.46
2022-12-08T15:09:16.626Z,4.40
2022-12-08T15:11:43.635Z,4.30
2022-12-08T15:14:32.646Z,4.20
2022-12-08T15:16:59.949Z,4.10
2022-12-08T15:19:28.741Z,4.06
2022-12-08T15:22:21.718Z,4.00
2022-12-08T15:24:48.795Z,3.90
2022-12-08T15:27:20.202Z,3.86
2022-12-08T15:29:48.059Z,3.80
2022-12-08T15:32:20.651Z,3.70
2022-12-08T15:34:47.678Z,3.68
2022-12-08T15:37:22.203Z,3.60
2022-12-08T15:39:49.147Z,3.52
2022-12-08T15:42:16.080Z,3.50
2022-12-08T15:44:43.062Z,3.40
2022-12-08T15:47:18.451Z,3.30
2022-12-08T15:49:45.834Z,3.24
2022-12-08T15:52:17.880Z,3.20
2022-12-08T15:54:44.589Z,3.10
2022-12-08T15:57:22.059Z,3.10
2022-12-08T15:59:56.755Z,3.00
2022-12-08T16:02:25.289Z,2.94
2022-12-08T16:07:39.849Z,2.82
2022-12-08T16:10:08.908Z,2.80
2022-12-08T16:13:54.801Z,2.80
2022-12-08T16:16:00.720Z,2.70
2022-12-08T16:18:31.997Z,2.64
2022-12-08T16:23:46.567Z,2.58
2022-12-08T16:26:54.546Z,2.50
2022-12-08T16:29:07.729Z,2.50
2022-12-08T16:31:35.159Z,2.42
2022-12-08T16:34:02.104Z,2.40
2022-12-08T16:36:28.846Z,2.40
2022-12-08T16:38:55.588Z,2.32
2022-12-08T16:41:40.610Z,2.30
2022-12-08T16:44:07.296Z,2.22
2022-12-08T16:46:34.885Z,2.16
2022-12-08T16:49:01.939Z,2.10
2022-12-08T16:51:28.894Z,2.10
2022-12-08T16:53:57.152Z,2.00
2022-12-08T16:56:30.411Z,2.00
2022-12-08T16:58:59.182Z,1.98
2022-12-08T17:01:25.959Z,1.90
2022-12-08T17:04:22.552Z,1.86
2022-12-08T17:06:39.693Z,1.86
2022-12-08T17:09:07.330Z,1.80
2022-12-08T17:11:42.373Z,1.80
2022-12-08T17:14:10.762Z,1.80
2022-12-08T17:16:37.868Z,1.70
2022-12-08T17:19:05.780Z,1.70
2022-12-08T17:21:33.656Z,1.70
2022-12-08T17:24:00.609Z,1.68
2022-12-08T17:26:28.090Z,1.60
2022-12-08T17:29:02.502Z,1.60
2022-12-08T17:31:32.239Z,1.60
2022-12-08T17:34:01.576Z,1.60
2022-12-08T17:36:28.508Z,1.50
2022-12-08T17:38:55.763Z,1.42
2022-12-08T17:41:22.898Z,1.40
2022-12-08T17:43:49.582Z,1.36
2022-12-08T17:46:18.444Z,1.30
2022-12-08T17:48:45.661Z,1.30
2022-12-08T17:51:12.670Z,1.30
2022-12-08T17:53:43.361Z,1.30
2022-12-08T17:56:21.329Z,1.30
2022-12-08T17:58:54.262Z,1.30
2022-12-08T18:01:23.191Z,1.30
2022-12-08T18:03:49.997Z,1.30
2022-12-08T18:06:20.123Z,1.30
2022-12-08T18:08:48.193Z,1.20
2022-12-08T18:11:18.625Z,1.20
2022-12-08T18:13:47.348Z,1.20
2022-12-08T18:16:14.480Z,1.20
2022-12-08T18:18:41.688Z,1.20
2022-12-08T18:21:08.956Z,1.16
2022-12-08T18:23:40.430Z,1.10
2022-12-08T18:26:09.528Z,1.10
2022-12-08T18:28:36.881Z,1.10
2022-12-08T18:31:13.027Z,1.08
2022-12-08T18:33:41.869Z,1.00
2022-12-08T18:36:14.881Z,1.00
2022-12-08T18:38:42.233Z,1.00
2022-12-08T18:41:14.371Z,1.00
2022-12-08T18:43:41.360Z,0.94
2022-12-08T18:46:10.725Z,0.90
2022-12-08T18:48:40.239Z,0.90
2022-12-08T18:51:19.089Z,0.84
2022-12-08T18:53:46.594Z,0.80
2022-12-08T18:56:34.161Z,0.80
2022-12-08T18:59:04.199Z,0.78
2022-12-08T19:01:32.866Z,0.80
2022-12-08T19:06:47.962Z,0.74
2022-12-08T19:09:15.943Z,0.78
2022-12-08T19:11:43.491Z,0.70
2022-12-08T19:14:10.947Z,0.70
2022-12-08T19:16:37.992Z,0.70
2022-12-08T19:19:05.127Z,0.64
2022-12-08T19:21:32.741Z,0.60
2022-12-08T19:24:00.371Z,0.50
2022-12-08T19:26:28.547Z,0.44
2022-12-08T19:28:55.327Z,0.40
2022-12-08T19:31:22.395Z,0.40
2022-12-08T19:33:49.173Z,0.38
2022-12-08T19:36:20.049Z,0.30
2022-12-08T19:39:05.972Z,0.30
2022-12-08T19:41:52.822Z,0.30
2022-12-08T19:44:39.454Z,0.30
2022-12-08T19:47:06.691Z,0.30
2022-12-08T19:49:33.746Z,0.28
2022-12-08T19:52:00.974Z,0.24
2022-12-08T19:54:28.333Z,0.20
2022-12-08T19:56:55.065Z,0.20
2022-12-08T19:59:22.760Z,0.20
2022-12-08T20:01:49.642Z,0.18
2022-12-08T20:04:17.715Z,0.10
2022-12-08T20:06:45.801Z,0.10
2022-12-08T20:09:13.376Z,0.10
2022-12-08T20:11:40.703Z,0.10
2022-12-08T20:14:07.965Z,0.10
2022-12-08T20:16:35.124Z,0.10
2022-12-08T20:19:02.196Z,0.10
2022-12-08T20:21:29.128Z,0.00
2022-12-08T20:23:56.138Z,-0.10
2022-12-08T20:26:23.496Z,-0.10
2022-12-08T20:28:50.965Z,-0.10
2022-12-08T20:31:26.287Z,-0.10
2022-12-08T20:33:53.738Z,-0.10
2022-12-08T20:36:22.555Z,-0.10
2022-12-08T20:38:51.108Z,-0.10
2022-12-08T20:41:19.219Z,-0.10
2022-12-08T20:43:47.551Z,-0.20
2022-12-08T20:46:16.650Z,-0.20
2022-12-08T20:48:44.695Z,-0.20
2022-12-08T20:51:16.739Z,-0.20
2022-12-08T20:53:43.729Z,-0.10
2022-12-08T20:56:14.909Z,0.08
2022-12-08T20:58:42.402Z,0.20
2022-12-08T21:01:11.060Z,0.20
2022-12-08T21:03:38.117Z,0.20
2022-12-08T21:06:05.151Z,0.10
2022-12-08T21:08:32.162Z,0.10
2022-12-08T21:10:59.055Z,0.02
2022-12-08T21:13:25.877Z,0.00
2022-12-08T21:15:52.945Z,-0.04
2022-12-08T21:18:19.989Z,-0.10
2022-12-08T21:20:48.347Z,-0.18
2022-12-08T21:23:16.618Z,-0.20
2022-12-08T21:25:46.375Z,-0.22
2022-12-08T21:28:13.285Z,-0.30
2022-12-08T21:30:41.117Z,-0.30
2022-12-08T21:33:07.927Z,-0.30
2022-12-08T21:35:35.146Z,-0.34
2022-12-08T21:38:02.113Z,-0.40
2022-12-08T21:40:29.059Z,-0.40
2022-12-08T21:42:56.041Z,-0.40
2022-12-08T21:45:23.271Z,-0.42
2022-12-08T21:47:50.813Z,-0.50
2022-12-08T21:50:18.932Z,-0.50
2022-12-08T21:52:48.265Z,-0.50
2022-12-08T21:55:17.104Z,-0.50
2022-12-08T21:57:43.823Z,-0.50
2022-12-08T22:00:14.730Z,-0.50
2022-12-08T22:02:42.038Z,-0.50
2022-12-08T22:05:09.913Z,-0.50
2022-12-08T22:07:41.216Z,-0.60
2022-12-08T22:10:10.522Z,-0.60
2022-12-08T22:12:39.272Z,-0.68
2022-12-08T22:15:07.989Z,-0.70
2022-12-08T22:17:39.837Z,-0.70
2022-12-08T22:20:09.699Z,-0.80
2022-12-08T22:22:37.324Z,-0.80
2022-12-08T22:25:06.020Z,-0.80
2022-12-08T22:27:36.162Z,-0.80
2022-12-08T22:30:04.669Z,-0.88
2022-12-08T22:32:32.170Z,-0.90
2022-12-08T22:34:59.173Z,-0.90
2022-12-08T22:37:26.002Z,-0.90
2022-12-08T22:39:52.783Z,-0.90
2022-12-08T22:42:19.460Z,-0.90
2022-12-08T22:44:46.236Z,-0.90
2022-12-08T22:47:12.948Z,-0.90
2022-12-08T22:49:39.857Z,-0.90
2022-12-08T22:52:06.707Z,-0.90
2022-12-08T22:54:33.396Z,-0.92
2022-12-08T22:57:00.128Z,-0.90
2022-12-08T22:59:28.406Z,-1.00
2022-12-08T23:01:55.087Z,-1.00
2022-12-08T23:04:21.941Z,-1.00
2022-12-08T23:06:48.731Z,-1.00
2022-12-08T23:09:15.517Z,-1.00
2022-12-08T23:11:43.110Z,-1.00
2022-12-08T23:14:09.999Z,-1.02
2022-12-08T23:16:36.998Z,-1.00
2022-12-08T23:19:04.193Z,-1.00
2022-12-08T23:21:31.251Z,-1.10
2022-12-08T23:24:01.562Z,-1.20
2022-12-08T23:26:31.678Z,-1.20
2022-12-08T23:28:59.685Z,-1.20
2022-12-08T23:31:27.449Z,-1.20
2022-12-08T23:33:54.961Z,-1.20
2022-12-08T23:36:25.066Z,-1.20
2022-12-08T23:38:52.525Z,-1.20
2022-12-08T23:41:19.366Z,-1.20
2022-12-08T23:43:48.943Z,-1.20
2022-12-08T23:46:18.367Z,-1.20
2022-12-08T23:48:45.571Z,-1.20
2022-12-08T23:51:13.231Z,-1.20
2022-12-08T23:53:40.267Z,-1.20
2022-12-08T23:56:09.799Z,-1.20
2022-12-08T23:58:37.123Z,-1.20
